Time;durP1;ratioP1;P1;durP2;ratioP2;P2;SDS_P1;SDS_P2;PMS_P1;PMS_P2;Temp;Humidity;BMP_temperature;BMP_pressure;BME280_temperature;BME280_humidity;BME280_pressure;Samples;Min_cycle;Max_cycle;Signal;HPM_P1;HPM_P2
2020/12/02 00:00:35;;;;;;;26.90;15.65;;;;;;;;;;5071012;28;20623;-78
2020/12/02 00:05:52;;;;;;;24.87;14.60;;;;;;;;;;5075263;28;20292;-78
2020/12/02 00:08:20;;;;;;;26.57;15.80;;;;;;;;;;5083646;28;20362;-77
2020/12/02 00:10:47;;;;;;;28.20;13.97;;;;;;;;;;5080357;28;20332;-77
2020/12/02 00:13:23;;;;;;;29.83;15.60;;;;;;;;;;5088448;28;20262;-78
2020/12/02 00:15:50;;;;;;;29.67;16.87;;;;;;;;;;5089185;28;20345;-78
2020/12/02 00:18:16;;;;;;;29.77;15.37;;;;;;;;;;5091467;28;20258;-77
2020/12/02 00:20:43;;;;;;;30.23;16.20;;;;;;;;;;5091328;28;20270;-78
2020/12/02 00:23:09;;;;;;;30.00;16.27;;;;;;;;;;5093463;28;20347;-78
2020/12/02 00:25:35;;;;;;;28.27;15.60;;;;;;;;;;5091462;28;20278;-77
2020/12/02 00:28:05;;;;;;;34.27;17.37;;;;;;;;;;5085594;28;20373;-78
2020/12/02 00:30:34;;;;;;;28.47;17.07;;;;;;;;;;5094443;28;20309;-78
2020/12/02 00:33:11;;;;;;;29.40;14.97;;;;;;;;;;5095062;28;20266;-78
2020/12/02 00:35:38;;;;;;;24.80;14.63;;;;;;;;;;5090182;28;20350;-78
2020/12/02 00:38:05;;;;;;;23.83;14.37;;;;;;;;;;5083866;28;20271;-78
2020/12/02 00:40:32;;;;;;;25.40;15.70;;;;;;;;;;5081043;28;20345;-78
2020/12/02 00:42:58;;;;;;;26.20;13.57;;;;;;;;;;5093784;28;20270;-78
2020/12/02 00:45:24;;;;;;;24.57;14.77;;;;;;;;;;5087994;28;20258;-77
2020/12/02 00:47:52;;;;;;;23.73;12.97;;;;;;;;;;5087196;28;20305;-78
2020/12/02 00:50:20;;;;;;;21.27;12.07;;;;;;;;;;5093990;28;20738;-78
2020/12/02 00:53:07;;;;;;;19.20;11.70;;;;;;;;;;5087945;28;20258;-77
2020/12/02 00:55:33;;;;;;;18.13;11.20;;;;;;;;;;5092370;28;20277;-78
2020/12/02 00:58:03;;;;;;;21.53;11.60;;;;;;;;;;5091670;28;20270;-78
2020/12/02 01:00:32;;;;;;;20.53;11.27;;;;;;;;;;5075706;28;20263;-78
2020/12/02 01:03:14;;;;;;;21.30;12.00;;;;;;;;;;5093466;28;20758;-78
2020/12/02 01:05:40;;;;;;;20.00;10.60;;;;;;;;;;5094234;28;20265;-78
2020/12/02 01:08:18;;;;;;;21.90;12.77;;;;;;;;;;5093142;28;20796;-78
2020/12/02 01:10:45;;;;;;;22.00;12.63;;;;;;;;;;5094540;28;20285;-78
2020/12/02 01:13:11;;;;;;;20.97;11.53;;;;;;;;;;5083657;28;20483;-78
2020/12/02 01:15:37;;;;;;;22.17;12.60;;;;;;;;;;5079174;28;20266;-78
2020/12/02 01:18:17;;;;;;;23.13;12.60;;;;;;;;;;5092687;28;20307;-78
2020/12/02 01:20:43;;;;;;;24.67;13.47;;;;;;;;;;5092803;28;20274;-78
2020/12/02 01:23:12;;;;;;;23.47;13.60;;;;;;;;;;5087743;28;20267;-77
2020/12/02 01:25:38;;;;;;;23.20;12.30;;;;;;;;;;5090546;28;20995;-78
2020/12/02 01:28:06;;;;;;;23.17;14.80;;;;;;;;;;5091271;28;20322;-78
2020/12/02 01:30:32;;;;;;;22.80;13.97;;;;;;;;;;5093035;28;20265;-78
2020/12/02 01:32:58;;;;;;;23.03;13.60;;;;;;;;;;5092668;28;20320;-78
2020/12/02 01:35:26;;;;;;;22.83;13.50;;;;;;;;;;5091864;28;20662;-78
2020/12/02 01:37:56;;;;;;;22.87;12.93;;;;;;;;;;5093271;28;20254;-77
2020/12/02 01:40:23;;;;;;;23.93;13.90;;;;;;;;;;5092361;28;20761;-78
2020/12/02 01:42:55;;;;;;;22.63;13.40;;;;;;;;;;5088647;28;20358;-78
2020/12/02 01:45:23;;;;;;;23.33;13.33;;;;;;;;;;5082583;28;20270;-77
2020/12/02 01:47:55;;;;;;;23.30;13.80;;;;;;;;;;5090767;28;20871;-78
2020/12/02 01:50:43;;;;;;;22.17;12.53;;;;;;;;;;5092873;28;20262;-78
2020/12/02 01:53:16;;;;;;;22.30;13.03;;;;;;;;;;5092926;28;20750;-78
2020/12/02 01:55:56;;;;;;;23.85;12.68;;;;;;;;;;5091619;28;20669;-78
2020/12/02 01:58:41;;;;;;;21.90;12.43;;;;;;;;;;5088920;28;20020;-78
2020/12/02 02:01:10;;;;;;;24.23;12.40;;;;;;;;;;5092096;28;20266;-77
2020/12/02 02:03:38;;;;;;;25.20;14.33;;;;;;;;;;5090781;28;20254;-78
2020/12/02 02:06:08;;;;;;;27.00;14.27;;;;;;;;;;5090698;28;20753;-78
2020/12/02 02:08:35;;;;;;;26.90;15.50;;;;;;;;;;5091394;28;20278;-77
2020/12/02 02:11:04;;;;;;;29.47;14.80;;;;;;;;;;5090193;28;20266;-78
2020/12/02 02:13:48;;;;;;;30.87;15.63;;;;;;;;;;5091654;28;20277;-78
2020/12/02 02:16:20;;;;;;;33.87;16.93;;;;;;;;;;5088736;28;20250;-78
2020/12/02 02:18:46;;;;;;;29.53;17.23;;;;;;;;;;5080357;28;20297;-77
2020/12/02 02:21:14;;;;;;;34.17;17.73;;;;;;;;;;5091113;28;20262;-78
2020/12/02 02:23:41;;;;;;;34.80;19.00;;;;;;;;;;5090996;28;20293;-77
2020/12/02 02:26:21;;;;;;;36.97;19.93;;;;;;;;;;5083195;28;20361;-78
2020/12/02 02:29:04;;;;;;;35.33;18.20;;;;;;;;;;5090818;28;20774;-77
2020/12/02 02:31:32;;;;;;;36.60;19.53;;;;;;;;;;5090973;28;20266;-78
2020/12/02 02:34:00;;;;;;;42.90;18.70;;;;;;;;;;5090130;28;21206;-78
2020/12/02 02:36:27;;;;;;;36.87;19.37;;;;;;;;;;5089673;28;20274;-77
2020/12/02 02:38:54;;;;;;;29.93;16.23;;;;;;;;;;5090524;28;20255;-77
2020/12/02 02:41:20;;;;;;;35.63;19.70;;;;;;;;;;5090234;28;20490;-77
2020/12/02 02:43:46;;;;;;;45.63;19.30;;;;;;;;;;5089603;28;20312;-77
2020/12/02 02:46:12;;;;;;;41.23;20.67;;;;;;;;;;5091032;28;20254;-78
2020/12/02 02:48:39;;;;;;;40.00;21.17;;;;;;;;;;5090276;28;20369;-78
2020/12/02 02:51:06;;;;;;;45.30;21.40;;;;;;;;;;5083361;28;20351;-78
2020/12/02 02:53:32;;;;;;;43.10;20.13;;;;;;;;;;5090095;28;20255;-78
2020/12/02 02:55:58;;;;;;;44.63;20.67;;;;;;;;;;5084704;28;20778;-77
2020/12/02 02:58:26;;;;;;;44.33;20.40;;;;;;;;;;5083844;28;20403;-77
2020/12/02 03:00:53;;;;;;;44.33;19.33;;;;;;;;;;5087822;28;20274;-78
2020/12/02 03:03:20;;;;;;;41.27;18.70;;;;;;;;;;5090051;28;20891;-77
2020/12/02 03:05:46;;;;;;;44.47;20.13;;;;;;;;;;5090976;28;20312;-77
2020/12/02 03:08:12;;;;;;;43.07;19.37;;;;;;;;;;5089518;28;20290;-77
2020/12/02 03:10:41;;;;;;;43.50;19.97;;;;;;;;;;5088900;28;20705;-77
2020/12/02 03:13:20;;;;;;;40.03;19.00;;;;;;;;;;5084799;28;20331;-77
2020/12/02 03:15:46;;;;;;;45.17;19.63;;;;;;;;;;5089241;28;20261;-78
2020/12/02 03:18:13;;;;;;;47.23;21.60;;;;;;;;;;5089618;28;20269;-77
2020/12/02 03:20:41;;;;;;;39.07;20.13;;;;;;;;;;5080294;28;20262;-77
2020/12/02 03:23:09;;;;;;;41.53;20.00;;;;;;;;;;5085019;28;20673;-77
2020/12/02 03:25:35;;;;;;;36.63;19.53;;;;;;;;;;5088945;28;20284;-77
2020/12/02 03:28:01;;;;;;;40.00;19.00;;;;;;;;;;5076517;28;20336;-77
2020/12/02 03:30:28;;;;;;;40.07;19.77;;;;;;;;;;5089302;28;20717;-77
2020/12/02 03:32:54;;;;;;;41.10;20.20;;;;;;;;;;5083682;28;20258;-77
2020/12/02 03:35:20;;;;;;;43.20;19.90;;;;;;;;;;5090034;28;20258;-77
2020/12/02 03:37:47;;;;;;;39.60;18.53;;;;;;;;;;5082875;28;20273;-77
2020/12/02 03:40:13;;;;;;;35.80;17.73;;;;;;;;;;5075663;28;20297;-77
2020/12/02 03:42:39;;;;;;;39.70;18.90;;;;;;;;;;5088092;28;20400;-77
2020/12/02 03:45:06;;;;;;;41.03;19.03;;;;;;;;;;5088293;28;20270;-77
2020/12/02 03:47:32;;;;;;;38.07;18.30;;;;;;;;;;5080596;28;20423;-77
2020/12/02 03:49:59;;;;;;;37.17;17.50;;;;;;;;;;5088919;28;20258;-77
2020/12/02 03:52:25;;;;;;;34.27;15.83;;;;;;;;;;5083507;28;20279;-77
2020/12/02 03:54:51;;;;;;;38.33;20.93;;;;;;;;;;5085799;28;20670;-77
2020/12/02 03:57:18;;;;;;;40.47;18.93;;;;;;;;;;5090038;28;20266;-77
2020/12/02 03:59:44;;;;;;;40.93;20.07;;;;;;;;;;5089185;28;20309;-77
2020/12/02 04:02:10;;;;;;;42.70;20.20;;;;;;;;;;5091152;28;20269;-77
2020/12/02 04:04:36;;;;;;;37.03;18.67;;;;;;;;;;5087144;28;20254;-77
2020/12/02 04:07:02;;;;;;;41.70;20.73;;;;;;;;;;5092600;28;20278;-77
2020/12/02 04:09:28;;;;;;;41.20;20.37;;;;;;;;;;5078707;28;20263;-77
2020/12/02 04:11:54;;;;;;;40.83;19.80;;;;;;;;;;5085603;28;20797;-76
2020/12/02 04:14:20;;;;;;;39.13;18.20;;;;;;;;;;5092677;28;20266;-79
2020/12/02 04:16:46;;;;;;;37.00;18.73;;;;;;;;;;5093782;28;20258;-76
2020/12/02 04:19:12;;;;;;;37.07;17.43;;;;;;;;;;5091865;28;20266;-77
2020/12/02 04:21:39;;;;;;;40.67;19.93;;;;;;;;;;5092691;28;20306;-77
2020/12/02 04:24:05;;;;;;;36.07;18.63;;;;;;;;;;5092022;28;20269;-77
2020/12/02 04:26:31;;;;;;;38.40;18.80;;;;;;;;;;5091591;28;20305;-77
2020/12/02 04:28:57;;;;;;;36.40;17.80;;;;;;;;;;5093322;28;20325;-77
2020/12/02 04:31:23;;;;;;;37.00;18.13;;;;;;;;;;5092514;28;20607;-77
2020/12/02 04:33:50;;;;;;;34.83;18.27;;;;;;;;;;5088665;28;20333;-77
2020/12/02 04:36:16;;;;;;;35.27;16.93;;;;;;;;;;5089430;28;20773;-77
2020/12/02 04:38:42;;;;;;;36.73;18.63;;;;;;;;;;5091960;28;20266;-77
2020/12/02 04:41:13;;;;;;;38.13;19.13;;;;;;;;;;5092244;28;20844;-76
2020/12/02 04:43:41;;;;;;;41.67;20.57;;;;;;;;;;5091999;28;20635;-76
2020/12/02 04:46:28;;;;;;;46.97;20.53;;;;;;;;;;5091654;28;20276;-77
2020/12/02 04:49:00;;;;;;;42.20;22.43;;;;;;;;;;5092129;28;20871;-77
2020/12/02 04:51:27;;;;;;;44.23;22.10;;;;;;;;;;5090919;28;20270;-77
2020/12/02 04:53:55;;;;;;;41.83;21.13;;;;;;;;;;5087357;28;20269;-76
2020/12/02 04:56:25;;;;;;;44.80;21.90;;;;;;;;;;5093147;28;20266;-76
2020/12/02 04:58:52;;;;;;;43.63;20.30;;;;;;;;;;5091168;28;20286;-77
2020/12/02 05:01:23;;;;;;;45.50;22.13;;;;;;;;;;5091715;28;20258;-77
2020/12/02 05:03:54;;;;;;;54.40;25.83;;;;;;;;;;5091604;28;20635;-77
2020/12/02 05:06:39;;;;;;;48.80;21.93;;;;;;;;;;5091911;28;20351;-76
2020/12/02 05:09:05;;;;;;;43.63;21.87;;;;;;;;;;5092712;28;20280;-76
2020/12/02 05:11:31;;;;;;;45.53;20.57;;;;;;;;;;5091423;28;20327;-76
2020/12/02 05:13:59;;;;;;;46.97;21.07;;;;;;;;;;5091405;28;20307;-77
2020/12/02 05:16:25;;;;;;;36.73;17.87;;;;;;;;;;5078943;28;20262;-76
2020/12/02 05:19:05;;;;;;;45.70;21.27;;;;;;;;;;5085841;28;20247;-76
2020/12/02 05:21:44;;;;;;;42.87;20.03;;;;;;;;;;5086253;28;20958;-77
2020/12/02 05:24:12;;;;;;;45.80;20.23;;;;;;;;;;5091050;28;20311;-76
2020/12/02 05:26:40;;;;;;;45.37;23.23;;;;;;;;;;5085613;28;20266;-77
2020/12/02 05:29:15;;;;;;;49.53;23.03;;;;;;;;;;5086241;28;20323;-77
2020/12/02 05:31:43;;;;;;;54.37;23.60;;;;;;;;;;5090028;28;20262;-77
2020/12/02 05:34:14;;;;;;;52.57;23.40;;;;;;;;;;5086785;28;20266;-77
2020/12/02 05:36:43;;;;;;;56.03;26.07;;;;;;;;;;5092233;28;20262;-77
2020/12/02 05:39:28;;;;;;;55.77;25.93;;;;;;;;;;5092564;28;20258;-77
2020/12/02 05:41:55;;;;;;;54.87;25.93;;;;;;;;;;5076188;28;20747;-77
2020/12/02 05:44:22;;;;;;;59.53;25.83;;;;;;;;;;5066210;28;20266;-77
2020/12/02 05:46:56;;;;;;;63.33;28.17;;;;;;;;;;5079233;28;20282;-77
2020/12/02 05:49:41;;;;;;;61.83;25.63;;;;;;;;;;5085917;28;20929;-77
2020/12/02 05:52:25;;;;;;;64.77;27.63;;;;;;;;;;5081482;28;20060;-77
2020/12/02 05:54:51;;;;;;;;;;;;;;;;;;5080125;28;20270;-77
2020/12/02 05:57:18;;;;;;;59.13;27.53;;;;;;;;;;5086165;28;19932;-77
2020/12/02 05:59:46;;;;;;;63.83;29.80;;;;;;;;;;5089331;28;20031;-80
2020/12/02 06:02:12;;;;;;;81.77;33.33;;;;;;;;;;5087066;28;20262;-76
2020/12/02 06:04:38;;;;;;;67.83;29.33;;;;;;;;;;5083907;28;20381;-77
2020/12/02 06:07:04;;;;;;;90.83;32.30;;;;;;;;;;5067637;28;20281;-77
2020/12/02 06:09:41;;;;;;;81.57;32.20;;;;;;;;;;5071697;28;20266;-77
2020/12/02 06:12:12;;;;;;;77.57;30.03;;;;;;;;;;5090830;28;20266;-76
2020/12/02 06:14:38;;;;;;;81.97;30.40;;;;;;;;;;5076198;28;20262;-79
2020/12/02 06:17:05;;;;;;;70.70;29.27;;;;;;;;;;5089821;28;20278;-80
2020/12/02 06:19:37;;;;;;;86.53;30.53;;;;;;;;;;5087542;28;20858;-80
2020/12/02 06:22:06;;;;;;;85.88;33.85;;;;;;;;;;5089311;28;20284;-74
2020/12/02 06:24:41;;;;;;;110.00;39.77;;;;;;;;;;5060780;22;20137;-76
2020/12/02 06:27:17;;;;;;;84.10;29.40;;;;;;;;;;5019948;28;20303;-75
2020/12/02 06:29:45;;;;;;;79.90;28.97;;;;;;;;;;5046891;28;20621;-76
2020/12/02 06:32:22;;;;;;;82.87;34.33;;;;;;;;;;5029639;28;20279;-76
2020/12/02 06:34:49;;;;;;;87.93;33.00;;;;;;;;;;5033355;28;20644;-76
2020/12/02 06:37:15;;;;;;;94.37;34.17;;;;;;;;;;5035021;28;20804;-75
2020/12/02 06:39:43;;;;;;;82.97;33.23;;;;;;;;;;5037696;28;20329;-75
2020/12/02 06:42:28;;;;;;;85.80;31.17;;;;;;;;;;5055126;28;20263;-74
2020/12/02 06:45:29;;;;;;;75.17;29.47;;;;;;;;;;5053342;28;20282;-75
2020/12/02 06:47:55;;;;;;;76.47;29.97;;;;;;;;;;5048746;28;20370;-75
2020/12/02 06:50:24;;;;;;;80.57;31.27;;;;;;;;;;5052909;28;20364;-76
2020/12/02 06:52:50;;;;;;;72.23;32.07;;;;;;;;;;5036705;28;20275;-77
2020/12/02 06:55:19;;;;;;;75.03;32.47;;;;;;;;;;5042493;28;20631;-75
2020/12/02 06:57:45;;;;;;;72.13;30.10;;;;;;;;;;5043706;28;20255;-75
2020/12/02 07:00:20;;;;;;;69.70;30.00;;;;;;;;;;5035732;28;20271;-75
2020/12/02 07:02:53;;;;;;;72.13;29.87;;;;;;;;;;5058607;28;20252;-75
2020/12/02 07:05:25;;;;;;;72.03;30.17;;;;;;;;;;5069018;28;20277;-75
2020/12/02 07:08:12;;;;;;;71.90;29.97;;;;;;;;;;5050583;28;20060;-75
2020/12/02 07:10:38;;;;;;;80.33;34.53;;;;;;;;;;5036064;28;20326;-75
2020/12/02 07:13:04;;;;;;;79.63;31.27;;;;;;;;;;5061668;28;20277;-78
2020/12/02 07:15:31;;;;;;;76.20;33.20;;;;;;;;;;5038483;28;20318;-75
2020/12/02 07:18:15;;;;;;;76.20;33.50;;;;;;;;;;5034651;28;20306;-76
2020/12/02 07:20:49;;;;;;;76.57;31.98;;;;;;;;;;5052562;28;20279;-76
2020/12/02 07:23:17;;;;;;;80.17;30.60;;;;;;;;;;5047051;28;20040;-75
2020/12/02 07:25:44;;;;;;;75.13;32.07;;;;;;;;;;5055758;28;20525;-74
2020/12/02 07:28:21;;;;;;;80.37;33.37;;;;;;;;;;5049059;28;20362;-75
2020/12/02 07:30:47;;;;;;;80.50;31.97;;;;;;;;;;5056494;28;20373;-76
2020/12/02 07:33:18;;;;;;;81.50;31.47;;;;;;;;;;5046165;28;20375;-76
2020/12/02 07:35:45;;;;;;;80.03;30.80;;;;;;;;;;5039118;28;20783;-75
2020/12/02 07:38:13;;;;;;;68.80;28.07;;;;;;;;;;5037581;28;20271;-77
2020/12/02 07:40:40;;;;;;;70.23;30.00;;;;;;;;;;5055745;28;20298;-75
2020/12/02 07:43:12;;;;;;;85.40;34.20;;;;;;;;;;5043420;28;20271;-75
2020/12/02 07:45:38;;;;;;;66.43;25.90;;;;;;;;;;5070263;28;20864;-76
2020/12/02 07:48:11;;;;;;;63.53;27.97;;;;;;;;;;5039433;28;20372;-75
2020/12/02 07:50:43;;;;;;;53.17;22.15;;;;;;;;;;5065391;28;20274;-76
2020/12/02 07:53:14;;;;;;;77.30;32.33;;;;;;;;;;5056575;28;20029;-75
2020/12/02 07:55:42;;;;;;;71.77;28.77;;;;;;;;;;5044179;28;20337;-75
2020/12/02 07:58:13;;;;;;;65.27;29.97;;;;;;;;;;5043401;28;20275;-76
2020/12/02 08:00:41;;;;;;;69.23;27.00;;;;;;;;;;5046037;28;20263;-76
2020/12/02 08:03:24;;;;;;;69.70;28.40;;;;;;;;;;5037018;28;20321;-76
2020/12/02 08:05:54;;;;;;;63.67;27.17;;;;;;;;;;5053622;28;20278;-76
2020/12/02 08:08:21;;;;;;;66.47;27.50;;;;;;;;;;5037498;28;20287;-76
2020/12/02 08:10:47;;;;;;;70.80;29.57;;;;;;;;;;5041308;28;20267;-76
2020/12/02 08:13:18;;;;;;;66.03;28.67;;;;;;;;;;5062281;28;20830;-76
2020/12/02 08:15:55;;;;;;;70.83;30.77;;;;;;;;;;5051837;28;20259;-76
2020/12/02 08:18:22;;;;;;;69.57;31.07;;;;;;;;;;5058966;28;20294;-76
2020/12/02 08:20:49;;;;;;;75.47;30.10;;;;;;;;;;5058657;28;20652;-75
2020/12/02 08:23:21;;;;;;;70.63;32.63;;;;;;;;;;5035338;28;20760;-76
2020/12/02 08:26:03;;;;;;;76.50;31.90;;;;;;;;;;5051772;28;20271;-76
2020/12/02 08:28:34;;;;;;;77.27;32.03;;;;;;;;;;5046932;28;20319;-76
2020/12/02 08:31:22;;;;;;;67.10;28.17;;;;;;;;;;5049075;28;20275;-76
2020/12/02 08:34:07;;;;;;;63.30;27.10;;;;;;;;;;5035744;28;20264;-76
2020/12/02 08:36:33;;;;;;;59.30;25.97;;;;;;;;;;5039436;28;20270;-76
2020/12/02 08:38:59;;;;;;;50.80;24.77;;;;;;;;;;5053882;28;20283;-76
2020/12/02 08:41:25;;;;;;;56.00;25.77;;;;;;;;;;5050070;28;20251;-77
2020/12/02 08:44:06;;;;;;;52.40;23.27;;;;;;;;;;5033394;28;20278;-76
2020/12/02 08:46:32;;;;;;;48.53;22.67;;;;;;;;;;5034797;28;20317;-76
2020/12/02 08:49:01;;;;;;;49.63;23.50;;;;;;;;;;5055387;28;20710;-76
2020/12/02 08:51:28;;;;;;;53.23;24.53;;;;;;;;;;5058562;28;20259;-76
2020/12/02 08:53:54;;;;;;;50.73;24.93;;;;;;;;;;5030991;28;20295;-76
2020/12/02 08:56:22;;;;;;;63.53;28.53;;;;;;;;;;5025007;28;20636;-76
2020/12/02 08:58:48;;;;;;;50.70;24.50;;;;;;;;;;5020369;28;20271;-76
2020/12/02 09:01:14;;;;;;;61.97;28.20;;;;;;;;;;5038893;28;20302;-77
2020/12/02 09:03:40;;;;;;;54.50;26.70;;;;;;;;;;5058070;28;20284;-77
2020/12/02 09:06:08;;;;;;;54.43;27.90;;;;;;;;;;5054613;28;20708;-76
2020/12/02 09:08:34;;;;;;;63.13;29.37;;;;;;;;;;5033610;28;20292;-77
2020/12/02 09:11:00;;;;;;;56.40;27.83;;;;;;;;;;5061431;28;20302;-76
2020/12/02 09:13:26;;;;;;;53.40;25.47;;;;;;;;;;5036155;28;20355;-77
2020/12/02 09:15:53;;;;;;;50.83;24.20;;;;;;;;;;5038158;28;20268;-76
2020/12/02 09:18:19;;;;;;;54.13;24.63;;;;;;;;;;5046160;28;20267;-76
2020/12/02 09:20:45;;;;;;;52.57;25.07;;;;;;;;;;5040347;28;20251;-76
2020/12/02 09:23:11;;;;;;;45.10;20.70;;;;;;;;;;5051758;28;20302;-76
2020/12/02 09:25:38;;;;;;;45.87;23.43;;;;;;;;;;5031854;28;20275;-76
2020/12/02 09:28:04;;;;;;;55.67;26.87;;;;;;;;;;5036429;28;20679;-76
2020/12/02 09:30:30;;;;;;;52.90;25.10;;;;;;;;;;5056966;28;20271;-76
2020/12/02 09:32:56;;;;;;;37.13;19.30;;;;;;;;;;5032303;28;20255;-76
2020/12/02 09:35:23;;;;;;;38.70;18.90;;;;;;;;;;5030339;28;20342;-75
2020/12/02 09:37:50;;;;;;;36.77;20.07;;;;;;;;;;5054066;28;21149;-75
2020/12/02 09:40:16;;;;;;;36.07;17.80;;;;;;;;;;5048833;28;20267;-76
2020/12/02 09:42:51;;;;;;;35.47;17.87;;;;;;;;;;5051632;28;20263;-76
2020/12/02 09:45:29;;;;;;;37.40;19.03;;;;;;;;;;5050112;28;20255;-76
2020/12/02 09:47:56;;;;;;;45.50;23.73;;;;;;;;;;5046955;28;20279;-75
2020/12/02 09:50:22;;;;;;;39.87;20.27;;;;;;;;;;5064564;28;20292;-75
2020/12/02 09:52:49;;;;;;;49.37;22.57;;;;;;;;;;5041644;28;20795;-77
2020/12/02 09:55:25;;;;;;;50.47;22.63;;;;;;;;;;5033833;28;20271;-76
2020/12/02 09:57:53;;;;;;;51.57;24.27;;;;;;;;;;5052449;28;20684;-76
2020/12/02 10:00:22;;;;;;;52.47;23.33;;;;;;;;;;5050192;28;20259;-76
2020/12/02 10:03:00;;;;;;;47.73;20.67;;;;;;;;;;5029453;28;20275;-75
2020/12/02 10:05:29;;;;;;;51.37;23.50;;;;;;;;;;5041381;28;20267;-77
2020/12/02 10:08:01;;;;;;;48.70;21.87;;;;;;;;;;5053448;28;20283;-76
2020/12/02 10:10:46;;;;;;;44.70;20.23;;;;;;;;;;5046315;28;20320;-76
2020/12/02 10:13:12;;;;;;;46.00;21.67;;;;;;;;;;5062063;28;20812;-76
2020/12/02 10:15:38;;;;;;;45.83;19.63;;;;;;;;;;5040022;28;20279;-79
2020/12/02 10:18:22;;;;;;;43.20;19.93;;;;;;;;;;5056496;28;20263;-75
2020/12/02 10:20:49;;;;;;;48.90;21.87;;;;;;;;;;5048549;28;20320;-76
2020/12/02 10:23:34;;;;;;;41.13;19.43;;;;;;;;;;5039808;28;20267;-76
2020/12/02 10:26:10;;;;;;;40.40;18.37;;;;;;;;;;5032796;28;20759;-76
2020/12/02 10:28:45;;;;;;;50.37;21.67;;;;;;;;;;5047713;28;20287;-76
2020/12/02 10:31:26;;;;;;;41.87;19.07;;;;;;;;;;5059245;28;20283;-76
2020/12/02 10:33:55;;;;;;;43.00;21.50;;;;;;;;;;5048552;28;20272;-75
2020/12/02 10:36:27;;;;;;;38.57;20.20;;;;;;;;;;5052296;28;20306;-74
2020/12/02 10:38:55;;;;;;;40.80;18.47;;;;;;;;;;5039378;28;21828;-75
2020/12/02 10:41:31;;;;;;;37.90;17.80;;;;;;;;;;5057097;28;20718;-75
2020/12/02 10:44:06;;;;;;;35.37;16.10;;;;;;;;;;5061255;28;20345;-76
2020/12/02 10:46:52;;;;;;;29.10;13.70;;;;;;;;;;5033358;28;20545;-76
2020/12/02 10:49:32;;;;;;;30.67;13.60;;;;;;;;;;5039469;28;20262;-77
2020/12/02 10:51:59;;;;;;;26.57;11.83;;;;;;;;;;5032967;28;20306;-77
2020/12/02 10:54:27;;;;;;;31.53;13.50;;;;;;;;;;5035765;28;20297;-76
2020/12/02 10:56:56;;;;;;;25.50;12.43;;;;;;;;;;5049910;28;20934;-77
2020/12/02 10:59:23;;;;;;;31.27;14.60;;;;;;;;;;5045708;28;20343;-77
2020/12/02 11:01:49;;;;;;;25.93;12.17;;;;;;;;;;5045144;28;20271;-76
2020/12/02 11:04:16;;;;;;;28.07;14.20;;;;;;;;;;5040096;28;20289;-76
2020/12/02 11:06:52;;;;;;;24.77;13.47;;;;;;;;;;5056526;28;20263;-75
2020/12/02 11:09:29;;;;;;;28.17;14.53;;;;;;;;;;5058919;28;20275;-75
2020/12/02 11:11:56;;;;;;;25.80;12.47;;;;;;;;;;5052549;28;20271;-76
2020/12/02 11:14:39;;;;;;;27.60;11.73;;;;;;;;;;5050279;28;20282;-77
2020/12/02 11:17:15;;;;;;;21.33;11.27;;;;;;;;;;5053345;28;20264;-75
2020/12/02 11:19:53;;;;;;;28.77;13.67;;;;;;;;;;5043742;28;20033;-75
2020/12/02 11:22:39;;;;;;;28.17;14.80;;;;;;;;;;5049982;28;20264;-75
2020/12/02 11:25:16;;;;;;;26.13;13.57;;;;;;;;;;5057482;28;20272;-76
2020/12/02 11:27:43;;;;;;;25.73;12.33;;;;;;;;;;5052630;28;20287;-75
2020/12/02 11:30:16;;;;;;;25.63;12.47;;;;;;;;;;5050730;28;20250;-74
2020/12/02 11:32:48;;;;;;;27.50;13.10;;;;;;;;;;5042179;28;20260;-74
2020/12/02 11:35:20;;;;;;;28.83;14.10;;;;;;;;;;5030222;28;20052;-74
2020/12/02 11:37:49;;;;;;;25.73;11.97;;;;;;;;;;5064805;28;20255;-74
2020/12/02 11:40:20;;;;;;;32.07;15.60;;;;;;;;;;5033959;28;20736;-73
2020/12/02 11:42:55;;;;;;;28.57;14.70;;;;;;;;;;5034434;28;20784;-73
2020/12/02 11:45:30;;;;;;;28.80;13.20;;;;;;;;;;5067226;28;20274;-73
2020/12/02 11:48:05;;;;;;;31.03;14.73;;;;;;;;;;5035898;28;20275;-73
2020/12/02 11:50:40;;;;;;;28.03;13.70;;;;;;;;;;5068452;28;20255;-74
2020/12/02 11:53:21;;;;;;;27.13;13.53;;;;;;;;;;5064115;28;21019;-75
2020/12/02 11:55:47;;;;;;;29.53;13.93;;;;;;;;;;5036633;28;20269;-74
2020/12/02 11:58:14;;;;;;;32.60;15.93;;;;;;;;;;5054950;28;20288;-74
2020/12/02 12:00:42;;;;;;;25.77;12.60;;;;;;;;;;5055836;28;20306;-74
2020/12/02 12:03:18;;;;;;;31.60;16.27;;;;;;;;;;5039491;28;20259;-75
2020/12/02 12:05:44;;;;;;;27.67;14.07;;;;;;;;;;5042228;28;20260;-75
2020/12/02 12:08:13;;;;;;;29.80;15.30;;;;;;;;;;5037095;28;20307;-75
2020/12/02 12:10:47;;;;;;;31.10;14.83;;;;;;;;;;5043405;28;20682;-74
2020/12/02 12:13:19;;;;;;;35.63;16.40;;;;;;;;;;5038249;28;20268;-74
2020/12/02 12:15:49;;;;;;;36.27;17.57;;;;;;;;;;5042694;28;20036;-74
2020/12/02 12:18:23;;;;;;;30.07;16.60;;;;;;;;;;5046461;28;20866;-74
2020/12/02 12:20:49;;;;;;;;;;;;;;;;;;5040709;28;20334;-74
2020/12/02 12:23:34;;;;;;;47.03;21.60;;;;;;;;;;5064750;28;19990;-75
2020/12/02 12:26:00;;;;;;;41.80;21.73;;;;;;;;;;5049812;28;20032;-77
2020/12/02 12:28:29;;;;;;;37.70;20.83;;;;;;;;;;5037629;28;20367;-76
2020/12/02 12:30:59;;;;;;;37.77;19.37;;;;;;;;;;5052419;28;20271;-76
2020/12/02 12:33:27;;;;;;;39.70;22.10;;;;;;;;;;5053998;28;20727;-76
2020/12/02 12:35:55;;;;;;;33.87;18.07;;;;;;;;;;5052597;28;20288;-75
2020/12/02 12:38:24;;;;;;;34.80;16.60;;;;;;;;;;5058749;28;20270;-75
2020/12/02 12:41:14;;;;;;;35.57;18.20;;;;;;;;;;5065578;28;20259;-75
2020/12/02 12:43:55;;;;;;;38.10;17.97;;;;;;;;;;5047820;28;20275;-75
2020/12/02 12:46:27;;;;;;;35.73;17.37;;;;;;;;;;5045922;28;20440;-75
2020/12/02 12:48:54;;;;;;;34.57;16.67;;;;;;;;;;5040845;28;20285;-75
2020/12/02 12:51:21;;;;;;;32.87;15.37;;;;;;;;;;5033688;28;20282;-74
2020/12/02 12:53:47;;;;;;;36.80;19.17;;;;;;;;;;5030722;28;20270;-75
2020/12/02 12:56:14;;;;;;;36.60;17.70;;;;;;;;;;5028844;28;20272;-75
2020/12/02 12:58:40;;;;;;;34.77;17.10;;;;;;;;;;5056136;28;20278;-75
2020/12/02 13:01:09;;;;;;;33.13;15.37;;;;;;;;;;5021918;28;20283;-75
2020/12/02 13:03:37;;;;;;;34.80;17.20;;;;;;;;;;5032303;28;20271;-75
2020/12/02 13:06:18;;;;;;;37.90;17.37;;;;;;;;;;5033248;28;20283;-75
2020/12/02 13:08:53;;;;;;;37.70;16.57;;;;;;;;;;5050384;28;21239;-74
2020/12/02 13:11:32;;;;;;;33.23;16.60;;;;;;;;;;5053344;28;20271;-76
2020/12/02 13:14:03;;;;;;;36.67;17.73;;;;;;;;;;5059344;28;20263;-76
2020/12/02 13:16:40;;;;;;;34.50;15.67;;;;;;;;;;5054808;28;20284;-76
2020/12/02 13:19:07;;;;;;;33.97;16.07;;;;;;;;;;5049811;28;20290;-76
2020/12/02 13:21:43;;;;;;;34.20;16.00;;;;;;;;;;5061462;28;20265;-75
2020/12/02 13:24:28;;;;;;;35.37;16.57;;;;;;;;;;5030311;28;20288;-75
2020/12/02 13:26:59;;;;;;;31.03;13.87;;;;;;;;;;5047303;28;20267;-76
2020/12/02 13:29:41;;;;;;;33.43;15.43;;;;;;;;;;5058673;28;20324;-74
2020/12/02 13:32:08;;;;;;;33.43;15.57;;;;;;;;;;5032343;28;20779;-75
2020/12/02 13:34:34;;;;;;;40.90;18.83;;;;;;;;;;5050392;28;20256;-75
2020/12/02 13:37:00;;;;;;;43.73;18.27;;;;;;;;;;5051354;28;20756;-75
2020/12/02 13:39:26;;;;;;;41.87;19.63;;;;;;;;;;5047931;28;20263;-75
2020/12/02 13:41:54;;;;;;;44.90;19.70;;;;;;;;;;5047156;28;20255;-76
2020/12/02 13:44:21;;;;;;;38.17;17.43;;;;;;;;;;5033512;28;20259;-75
2020/12/02 13:46:50;;;;;;;33.27;15.67;;;;;;;;;;5032798;28;20623;-75
2020/12/02 13:49:18;;;;;;;34.90;17.93;;;;;;;;;;5037757;28;20314;-75
2020/12/02 13:52:03;;;;;;;32.00;15.10;;;;;;;;;;5046279;28;20275;-75
2020/12/02 13:54:56;;;;;;;39.87;19.73;;;;;;;;;;5033499;28;20929;-76
2020/12/02 13:57:33;;;;;;;39.03;18.33;;;;;;;;;;5008419;28;20322;-75
2020/12/02 14:00:05;;;;;;;27.33;11.77;;;;;;;;;;5057929;28;20032;-76
2020/12/02 14:02:37;;;;;;;30.03;14.47;;;;;;;;;;5028610;28;20268;-75
2020/12/02 14:05:06;;;;;;;28.90;14.93;;;;;;;;;;5020795;28;20802;-76
2020/12/02 14:07:34;;;;;;;33.30;14.57;;;;;;;;;;5033013;28;20291;-75
2020/12/02 14:10:00;;;;;;;30.30;14.20;;;;;;;;;;5033104;28;20310;-74
2020/12/02 14:12:29;;;;;;;35.13;15.03;;;;;;;;;;5050482;28;20271;-76
2020/12/02 14:14:55;;;;;;;34.23;15.97;;;;;;;;;;5050891;28;20268;-76
2020/12/02 14:17:22;;;;;;;34.53;14.90;;;;;;;;;;5049340;28;20267;-76
2020/12/02 14:19:49;;;;;;;34.10;16.23;;;;;;;;;;5053490;28;20337;-77
2020/12/02 14:22:19;;;;;;;34.97;16.43;;;;;;;;;;5029588;28;20272;-74
2020/12/02 14:24:47;;;;;;;32.73;15.53;;;;;;;;;;5027458;28;20271;-75
2020/12/02 14:27:18;;;;;;;33.10;15.93;;;;;;;;;;5050868;28;20311;-76
2020/12/02 14:29:44;;;;;;;29.03;15.27;;;;;;;;;;5049333;28;20255;-76
2020/12/02 14:32:11;;;;;;;32.87;16.50;;;;;;;;;;5041827;28;20251;-76
2020/12/02 14:34:37;;;;;;;38.70;18.37;;;;;;;;;;5033083;28;20293;-75
2020/12/02 14:37:04;;;;;;;41.33;18.87;;;;;;;;;;5029237;28;20267;-75
2020/12/02 14:39:30;;;;;;;39.03;18.90;;;;;;;;;;5050507;28;20446;-76